sensor_id;sensor_type;location;lat;lon;timestamp;temperature;humidity
62363;DHT22;48396;48.426;1.500;2023-02-04T00:01:48;13.40;95.30
62363;DHT22;48396;48.426;1.500;2023-02-04T00:04:14;13.40;95.20
62363;DHT22;48396;48.426;1.500;2023-02-04T00:06:40;13.40;95.30
62363;DHT22;48396;48.426;1.500;2023-02-04T00:09:06;13.40;95.30
62363;DHT22;48396;48.426;1.500;2023-02-04T00:11:32;13.40;95.30
62363;DHT22;48396;48.426;1.500;2023-02-04T00:13:57;13.40;95.20
62363;DHT22;48396;48.426;1.500;2023-02-04T00:16:23;13.40;95.20
62363;DHT22;48396;48.426;1.500;2023-02-04T00:18:49;13.40;95.20
62363;DHT22;48396;48.426;1.500;2023-02-04T00:21:15;13.40;95.30
62363;DHT22;48396;48.426;1.500;2023-02-04T00:23:41;13.40;95.30
62363;DHT22;48396;48.426;1.500;2023-02-04T00:26:07;13.40;95.30
62363;DHT22;48396;48.426;1.500;2023-02-04T00:28:32;13.40;95.20
62363;DHT22;48396;48.426;1.500;2023-02-04T00:30:58;13.40;95.20
62363;DHT22;48396;48.426;1.500;2023-02-04T00:33:24;13.40;95.10
62363;DHT22;48396;48.426;1.500;2023-02-04T00:35:50;13.40;95.20
62363;DHT22;48396;48.426;1.500;2023-02-04T00:38:15;13.40;95.30
62363;DHT22;48396;48.426;1.500;2023-02-04T00:40:41;13.40;95.20
62363;DHT22;48396;48.426;1.500;2023-02-04T00:43:07;13.40;95.20
62363;DHT22;48396;48.426;1.500;2023-02-04T00:45:33;13.40;95.10
62363;DHT22;48396;48.426;1.500;2023-02-04T00:47:58;13.40;95.10
62363;DHT22;48396;48.426;1.500;2023-02-04T00:50:24;13.40;95.10
62363;DHT22;48396;48.426;1.500;2023-02-04T00:52:50;13.40;95.10
62363;DHT22;48396;48.426;1.500;2023-02-04T00:55:17;13.40;95.10
62363;DHT22;48396;48.426;1.500;2023-02-04T00:57:44;13.40;95.20
62363;DHT22;48396;48.426;1.500;2023-02-04T01:00:14;13.40;95.20
62363;DHT22;48396;48.426;1.500;2023-02-04T01:02:40;13.40;95.20
62363;DHT22;48396;48.426;1.500;2023-02-04T01:05:09;13.30;95.30
62363;DHT22;48396;48.426;1.500;2023-02-04T01:07:35;13.20;95.30
62363;DHT22;48396;48.426;1.500;2023-02-04T01:10:02;13.30;95.30
62363;DHT22;48396;48.426;1.500;2023-02-04T01:12:28;13.30;95.30
62363;DHT22;48396;48.426;1.500;2023-02-04T01:14:54;13.30;95.40
62363;DHT22;48396;48.426;1.500;2023-02-04T01:17:20;13.30;95.30
62363;DHT22;48396;48.426;1.500;2023-02-04T01:19:46;13.30;95.30
62363;DHT22;48396;48.426;1.500;2023-02-04T01:22:12;13.40;95.30
62363;DHT22;48396;48.426;1.500;2023-02-04T01:24:38;13.40;95.30
62363;DHT22;48396;48.426;1.500;2023-02-04T01:27:04;13.40;95.20
62363;DHT22;48396;48.426;1.500;2023-02-04T01:29:30;13.40;95.20
62363;DHT22;48396;48.426;1.500;2023-02-04T01:31:56;13.50;95.10
62363;DHT22;48396;48.426;1.500;2023-02-04T01:34:22;13.50;95.10
62363;DHT22;48396;48.426;1.500;2023-02-04T01:36:48;13.50;95.10
62363;DHT22;48396;48.426;1.500;2023-02-04T01:39:13;13.50;95.10
62363;DHT22;48396;48.426;1.500;2023-02-04T01:41:40;13.50;95.00
62363;DHT22;48396;48.426;1.500;2023-02-04T01:44:05;13.50;95.00
62363;DHT22;48396;48.426;1.500;2023-02-04T01:46:32;13.50;95.00
62363;DHT22;48396;48.426;1.500;2023-02-04T01:49:00;13.50;95.10
62363;DHT22;48396;48.426;1.500;2023-02-04T01:51:27;13.40;95.00
62363;DHT22;48396;48.426;1.500;2023-02-04T01:53:57;13.40;95.00
62363;DHT22;48396;48.426;1.500;2023-02-04T01:56:24;13.40;95.00
62363;DHT22;48396;48.426;1.500;2023-02-04T01:58:53;13.40;95.00
62363;DHT22;48396;48.426;1.500;2023-02-04T02:04:07;13.40;95.00
62363;DHT22;48396;48.426;1.500;2023-02-04T02:06:34;13.30;95.00
62363;DHT22;48396;48.426;1.500;2023-02-04T02:09:00;13.30;95.10
62363;DHT22;48396;48.426;1.500;2023-02-04T02:11:27;13.40;95.10
62363;DHT22;48396;48.426;1.500;2023-02-04T02:13:53;13.40;95.10
62363;DHT22;48396;48.426;1.500;2023-02-04T02:16:19;13.40;95.10
62363;DHT22;48396;48.426;1.500;2023-02-04T02:18:45;13.50;95.00
62363;DHT22;48396;48.426;1.500;2023-02-04T02:21:12;13.40;95.00
62363;DHT22;48396;48.426;1.500;2023-02-04T02:23:48;13.40;95.00
62363;DHT22;48396;48.426;1.500;2023-02-04T02:26:16;13.40;95.00
62363;DHT22;48396;48.426;1.500;2023-02-04T02:28:44;13.40;95.10
62363;DHT22;48396;48.426;1.500;2023-02-04T02:31:10;13.40;95.00
62363;DHT22;48396;48.426;1.500;2023-02-04T02:33:36;13.40;95.00
62363;DHT22;48396;48.426;1.500;2023-02-04T02:36:02;13.40;95.00
62363;DHT22;48396;48.426;1.500;2023-02-04T02:38:28;13.40;95.00
62363;DHT22;48396;48.426;1.500;2023-02-04T02:40:55;13.40;95.00
62363;DHT22;48396;48.426;1.500;2023-02-04T02:43:23;13.40;95.10
62363;DHT22;48396;48.426;1.500;2023-02-04T02:45:51;13.40;95.10
62363;DHT22;48396;48.426;1.500;2023-02-04T02:48:17;13.40;95.00
62363;DHT22;48396;48.426;1.500;2023-02-04T02:50:43;13.40;95.00
62363;DHT22;48396;48.426;1.500;2023-02-04T02:53:11;13.40;95.00
62363;DHT22;48396;48.426;1.500;2023-02-04T02:55:37;13.40;95.00
62363;DHT22;48396;48.426;1.500;2023-02-04T02:58:04;13.30;95.10
62363;DHT22;48396;48.426;1.500;2023-02-04T03:00:34;13.30;95.20
62363;DHT22;48396;48.426;1.500;2023-02-04T03:03:06;13.30;95.20
62363;DHT22;48396;48.426;1.500;2023-02-04T03:05:36;13.30;95.30
62363;DHT22;48396;48.426;1.500;2023-02-04T03:08:03;13.30;95.30
62363;DHT22;48396;48.426;1.500;2023-02-04T03:10:30;13.30;95.30
62363;DHT22;48396;48.426;1.500;2023-02-04T03:12:56;13.30;95.20
62363;DHT22;48396;48.426;1.500;2023-02-04T03:15:22;13.40;95.20
62363;DHT22;48396;48.426;1.500;2023-02-04T03:17:48;13.30;95.30
62363;DHT22;48396;48.426;1.500;2023-02-04T03:20:14;13.30;95.30
62363;DHT22;48396;48.426;1.500;2023-02-04T03:22:41;13.30;95.40
62363;DHT22;48396;48.426;1.500;2023-02-04T03:25:07;13.30;95.40
62363;DHT22;48396;48.426;1.500;2023-02-04T03:27:33;13.30;95.40
62363;DHT22;48396;48.426;1.500;2023-02-04T03:29:58;13.30;95.40
62363;DHT22;48396;48.426;1.500;2023-02-04T03:32:24;13.30;95.40
62363;DHT22;48396;48.426;1.500;2023-02-04T03:34:50;13.30;95.40
62363;DHT22;48396;48.426;1.500;2023-02-04T03:37:16;13.30;95.40
62363;DHT22;48396;48.426;1.500;2023-02-04T03:39:41;13.30;95.50
62363;DHT22;48396;48.426;1.500;2023-02-04T03:42:07;13.30;95.50
62363;DHT22;48396;48.426;1.500;2023-02-04T03:44:33;13.30;95.40
62363;DHT22;48396;48.426;1.500;2023-02-04T03:46:58;13.30;95.40
62363;DHT22;48396;48.426;1.500;2023-02-04T03:49:24;13.30;95.40
62363;DHT22;48396;48.426;1.500;2023-02-04T03:51:50;13.40;95.40
62363;DHT22;48396;48.426;1.500;2023-02-04T03:54:16;13.40;95.30
62363;DHT22;48396;48.426;1.500;2023-02-04T03:56:42;13.40;95.30
62363;DHT22;48396;48.426;1.500;2023-02-04T03:59:07;13.40;95.30
62363;DHT22;48396;48.426;1.500;2023-02-04T04:01:33;13.40;95.40
62363;DHT22;48396;48.426;1.500;2023-02-04T04:03:59;13.40;95.40
62363;DHT22;48396;48.426;1.500;2023-02-04T04:06:24;13.40;95.40
62363;DHT22;48396;48.426;1.500;2023-02-04T04:08:50;13.40;95.40
62363;DHT22;48396;48.426;1.500;2023-02-04T04:11:16;13.40;95.30
62363;DHT22;48396;48.426;1.500;2023-02-04T04:13:42;13.40;95.30
62363;DHT22;48396;48.426;1.500;2023-02-04T04:16:07;13.40;95.40
62363;DHT22;48396;48.426;1.500;2023-02-04T04:18:34;13.40;95.40
62363;DHT22;48396;48.426;1.500;2023-02-04T04:21:00;13.40;95.40
62363;DHT22;48396;48.426;1.500;2023-02-04T04:23:26;13.40;95.50
62363;DHT22;48396;48.426;1.500;2023-02-04T04:25:52;13.40;95.40
62363;DHT22;48396;48.426;1.500;2023-02-04T04:28:18;13.40;95.40
62363;DHT22;48396;48.426;1.500;2023-02-04T04:30:44;13.40;95.50
62363;DHT22;48396;48.426;1.500;2023-02-04T04:33:09;13.40;95.50
62363;DHT22;48396;48.426;1.500;2023-02-04T04:35:35;13.40;95.50
62363;DHT22;48396;48.426;1.500;2023-02-04T04:38:01;13.40;95.50
62363;DHT22;48396;48.426;1.500;2023-02-04T04:40:27;13.40;95.40
62363;DHT22;48396;48.426;1.500;2023-02-04T04:42:53;13.40;95.40
62363;DHT22;48396;48.426;1.500;2023-02-04T04:45:19;13.40;95.40
62363;DHT22;48396;48.426;1.500;2023-02-04T04:47:45;13.40;95.40
62363;DHT22;48396;48.426;1.500;2023-02-04T04:50:11;13.40;95.30
62363;DHT22;48396;48.426;1.500;2023-02-04T04:52:38;13.40;95.40
62363;DHT22;48396;48.426;1.500;2023-02-04T04:55:04;13.40;95.40
62363;DHT22;48396;48.426;1.500;2023-02-04T04:57:30;13.40;95.50
62363;DHT22;48396;48.426;1.500;2023-02-04T04:59:56;13.30;95.40
62363;DHT22;48396;48.426;1.500;2023-02-04T05:02:22;13.40;95.40
62363;DHT22;48396;48.426;1.500;2023-02-04T05:04:48;13.40;95.50
62363;DHT22;48396;48.426;1.500;2023-02-04T05:07:14;13.40;95.50
62363;DHT22;48396;48.426;1.500;2023-02-04T05:09:39;13.40;95.50
62363;DHT22;48396;48.426;1.500;2023-02-04T05:12:05;13.40;95.50
62363;DHT22;48396;48.426;1.500;2023-02-04T05:14:31;13.20;95.60
62363;DHT22;48396;48.426;1.500;2023-02-04T05:16:57;13.30;95.60
62363;DHT22;48396;48.426;1.500;2023-02-04T05:19:23;13.30;95.60
62363;DHT22;48396;48.426;1.500;2023-02-04T05:21:48;13.30;95.60
62363;DHT22;48396;48.426;1.500;2023-02-04T05:24:14;13.30;95.60
62363;DHT22;48396;48.426;1.500;2023-02-04T05:26:40;13.30;95.50
62363;DHT22;48396;48.426;1.500;2023-02-04T05:29:06;13.30;95.60
62363;DHT22;48396;48.426;1.500;2023-02-04T05:31:31;13.20;95.60
62363;DHT22;48396;48.426;1.500;2023-02-04T05:33:58;13.30;95.60
62363;DHT22;48396;48.426;1.500;2023-02-04T05:36:24;13.30;95.60
62363;DHT22;48396;48.426;1.500;2023-02-04T05:38:49;13.30;95.60
62363;DHT22;48396;48.426;1.500;2023-02-04T05:41:15;13.20;95.60
62363;DHT22;48396;48.426;1.500;2023-02-04T05:43:41;13.20;95.70
62363;DHT22;48396;48.426;1.500;2023-02-04T05:46:07;13.20;95.70
62363;DHT22;48396;48.426;1.500;2023-02-04T05:48:33;13.20;95.70
62363;DHT22;48396;48.426;1.500;2023-02-04T05:50:59;13.30;95.70
62363;DHT22;48396;48.426;1.500;2023-02-04T05:53:24;13.30;95.70
62363;DHT22;48396;48.426;1.500;2023-02-04T05:55:50;13.20;95.80
62363;DHT22;48396;48.426;1.500;2023-02-04T05:58:16;13.20;95.80
62363;DHT22;48396;48.426;1.500;2023-02-04T06:00:42;13.20;95.90
62363;DHT22;48396;48.426;1.500;2023-02-04T06:03:07;13.20;95.80
62363;DHT22;48396;48.426;1.500;2023-02-04T06:05:33;13.30;95.80
62363;DHT22;48396;48.426;1.500;2023-02-04T06:07:59;13.20;95.80
62363;DHT22;48396;48.426;1.500;2023-02-04T06:10:25;13.20;95.80
62363;DHT22;48396;48.426;1.500;2023-02-04T06:12:51;13.20;95.90
62363;DHT22;48396;48.426;1.500;2023-02-04T06:15:16;13.20;96.00
62363;DHT22;48396;48.426;1.500;2023-02-04T06:17:42;13.20;96.00
62363;DHT22;48396;48.426;1.500;2023-02-04T06:20:09;13.20;96.00
62363;DHT22;48396;48.426;1.500;2023-02-04T06:22:35;13.20;95.90
62363;DHT22;48396;48.426;1.500;2023-02-04T06:25:01;13.20;96.00
62363;DHT22;48396;48.426;1.500;2023-02-04T06:27:27;13.20;96.00
62363;DHT22;48396;48.426;1.500;2023-02-04T06:29:53;13.20;96.00
62363;DHT22;48396;48.426;1.500;2023-02-04T06:32:19;13.20;96.10
62363;DHT22;48396;48.426;1.500;2023-02-04T06:34:45;13.10;96.10
62363;DHT22;48396;48.426;1.500;2023-02-04T06:37:12;13.20;96.10
62363;DHT22;48396;48.426;1.500;2023-02-04T06:39:38;13.10;96.10
62363;DHT22;48396;48.426;1.500;2023-02-04T06:42:04;13.20;96.10
62363;DHT22;48396;48.426;1.500;2023-02-04T06:44:30;13.20;96.10
62363;DHT22;48396;48.426;1.500;2023-02-04T06:46:55;13.20;96.00
62363;DHT22;48396;48.426;1.500;2023-02-04T06:49:21;13.20;96.00
62363;DHT22;48396;48.426;1.500;2023-02-04T06:51:49;13.20;96.00
62363;DHT22;48396;48.426;1.500;2023-02-04T06:54:15;13.20;96.00
62363;DHT22;48396;48.426;1.500;2023-02-04T06:56:41;13.20;96.00
62363;DHT22;48396;48.426;1.500;2023-02-04T06:59:08;13.20;96.00
62363;DHT22;48396;48.426;1.500;2023-02-04T07:01:35;13.20;96.10
62363;DHT22;48396;48.426;1.500;2023-02-04T07:04:01;13.20;96.00
62363;DHT22;48396;48.426;1.500;2023-02-04T07:06:27;13.20;96.00
62363;DHT22;48396;48.426;1.500;2023-02-04T07:08:53;13.20;95.90
62363;DHT22;48396;48.426;1.500;2023-02-04T07:11:18;13.20;96.00
62363;DHT22;48396;48.426;1.500;2023-02-04T07:13:44;13.20;96.00
62363;DHT22;48396;48.426;1.500;2023-02-04T07:16:10;13.20;95.90
62363;DHT22;48396;48.426;1.500;2023-02-04T07:18:36;13.20;95.90
62363;DHT22;48396;48.426;1.500;2023-02-04T07:21:01;13.20;95.80
62363;DHT22;48396;48.426;1.500;2023-02-04T07:23:27;13.20;95.80
62363;DHT22;48396;48.426;1.500;2023-02-04T07:25:53;13.20;95.80
62363;DHT22;48396;48.426;1.500;2023-02-04T07:28:21;13.20;95.70
62363;DHT22;48396;48.426;1.500;2023-02-04T07:30:46;13.20;95.50
62363;DHT22;48396;48.426;1.500;2023-02-04T07:33:12;13.10;95.30
62363;DHT22;48396;48.426;1.500;2023-02-04T07:35:38;13.10;95.20
62363;DHT22;48396;48.426;1.500;2023-02-04T07:38:04;13.20;95.10
62363;DHT22;48396;48.426;1.500;2023-02-04T07:40:30;13.20;94.90
62363;DHT22;48396;48.426;1.500;2023-02-04T07:42:56;13.30;94.70
62363;DHT22;48396;48.426;1.500;2023-02-04T07:45:22;13.30;94.60
62363;DHT22;48396;48.426;1.500;2023-02-04T07:47:48;13.30;94.50
62363;DHT22;48396;48.426;1.500;2023-02-04T07:50:14;13.30;94.30
62363;DHT22;48396;48.426;1.500;2023-02-04T07:52:40;13.30;94.30
62363;DHT22;48396;48.426;1.500;2023-02-04T07:55:07;13.30;94.20
62363;DHT22;48396;48.426;1.500;2023-02-04T07:57:33;13.30;94.30
62363;DHT22;48396;48.426;1.500;2023-02-04T07:59:59;13.30;94.20
62363;DHT22;48396;48.426;1.500;2023-02-04T08:02:25;13.30;94.20
62363;DHT22;48396;48.426;1.500;2023-02-04T08:04:51;13.30;94.20
62363;DHT22;48396;48.426;1.500;2023-02-04T08:07:17;13.30;94.20
62363;DHT22;48396;48.426;1.500;2023-02-04T08:09:43;13.30;94.30
62363;DHT22;48396;48.426;1.500;2023-02-04T08:12:09;13.30;94.30
62363;DHT22;48396;48.426;1.500;2023-02-04T08:14:34;13.40;94.30
62363;DHT22;48396;48.426;1.500;2023-02-04T08:17:01;13.40;94.30
62363;DHT22;48396;48.426;1.500;2023-02-04T08:19:27;13.40;94.30
62363;DHT22;48396;48.426;1.500;2023-02-04T08:21:53;13.40;94.30
62363;DHT22;48396;48.426;1.500;2023-02-04T08:24:19;13.40;94.40
62363;DHT22;48396;48.426;1.500;2023-02-04T08:26:44;13.50;94.40
62363;DHT22;48396;48.426;1.500;2023-02-04T08:29:11;13.40;94.40
62363;DHT22;48396;48.426;1.500;2023-02-04T08:31:37;13.50;94.40
62363;DHT22;48396;48.426;1.500;2023-02-04T08:34:04;13.50;94.50
62363;DHT22;48396;48.426;1.500;2023-02-04T08:36:30;13.50;94.50
62363;DHT22;48396;48.426;1.500;2023-02-04T08:38:56;13.40;94.50
62363;DHT22;48396;48.426;1.500;2023-02-04T08:41:21;13.40;94.60
62363;DHT22;48396;48.426;1.500;2023-02-04T08:43:47;13.50;94.60
62363;DHT22;48396;48.426;1.500;2023-02-04T08:46:13;13.50;94.70
62363;DHT22;48396;48.426;1.500;2023-02-04T08:48:39;13.50;94.70
62363;DHT22;48396;48.426;1.500;2023-02-04T08:51:04;13.40;94.80
62363;DHT22;48396;48.426;1.500;2023-02-04T08:53:30;13.50;94.90
62363;DHT22;48396;48.426;1.500;2023-02-04T08:55:56;13.50;94.90
62363;DHT22;48396;48.426;1.500;2023-02-04T08:58:22;13.50;94.90
62363;DHT22;48396;48.426;1.500;2023-02-04T09:00:47;13.50;94.90
62363;DHT22;48396;48.426;1.500;2023-02-04T09:03:13;13.50;94.90
62363;DHT22;48396;48.426;1.500;2023-02-04T09:05:39;13.50;94.90
62363;DHT22;48396;48.426;1.500;2023-02-04T09:08:04;13.50;95.00
62363;DHT22;48396;48.426;1.500;2023-02-04T09:10:30;13.50;95.00
62363;DHT22;48396;48.426;1.500;2023-02-04T09:12:56;13.50;95.00
62363;DHT22;48396;48.426;1.500;2023-02-04T09:15:23;13.50;95.00
62363;DHT22;48396;48.426;1.500;2023-02-04T09:17:50;13.50;95.10
62363;DHT22;48396;48.426;1.500;2023-02-04T09:20:18;13.60;95.20
62363;DHT22;48396;48.426;1.500;2023-02-04T09:22:44;13.60;95.10
62363;DHT22;48396;48.426;1.500;2023-02-04T09:25:09;13.60;95.10
62363;DHT22;48396;48.426;1.500;2023-02-04T09:27:35;13.60;95.10
62363;DHT22;48396;48.426;1.500;2023-02-04T09:30:01;13.60;95.10
62363;DHT22;48396;48.426;1.500;2023-02-04T09:32:27;13.60;95.00
62363;DHT22;48396;48.426;1.500;2023-02-04T09:34:52;13.60;95.00
62363;DHT22;48396;48.426;1.500;2023-02-04T09:37:18;13.60;95.00
62363;DHT22;48396;48.426;1.500;2023-02-04T09:39:44;13.60;95.10
62363;DHT22;48396;48.426;1.500;2023-02-04T09:42:14;13.60;95.10
62363;DHT22;48396;48.426;1.500;2023-02-04T09:44:40;13.60;95.10
62363;DHT22;48396;48.426;1.500;2023-02-04T09:47:08;13.50;95.20
62363;DHT22;48396;48.426;1.500;2023-02-04T09:49:36;13.50;95.20
62363;DHT22;48396;48.426;1.500;2023-02-04T09:52:02;13.50;95.30
62363;DHT22;48396;48.426;1.500;2023-02-04T09:54:27;13.50;95.30
62363;DHT22;48396;48.426;1.500;2023-02-04T09:56:53;13.50;95.30
62363;DHT22;48396;48.426;1.500;2023-02-04T09:59:22;13.50;95.40
62363;DHT22;48396;48.426;1.500;2023-02-04T10:01:59;13.50;95.40
62363;DHT22;48396;48.426;1.500;2023-02-04T10:04:26;13.50;95.40
62363;DHT22;48396;48.426;1.500;2023-02-04T10:06:52;13.50;95.50
62363;DHT22;48396;48.426;1.500;2023-02-04T10:09:18;13.50;95.40
62363;DHT22;48396;48.426;1.500;2023-02-04T10:11:46;13.60;95.50
62363;DHT22;48396;48.426;1.500;2023-02-04T10:14:18;13.70;95.50
62363;DHT22;48396;48.426;1.500;2023-02-04T10:16:55;13.70;95.40
62363;DHT22;48396;48.426;1.500;2023-02-04T10:19:22;13.70;95.40
62363;DHT22;48396;48.426;1.500;2023-02-04T10:21:48;13.70;95.40
62363;DHT22;48396;48.426;1.500;2023-02-04T10:24:24;13.70;95.50
62363;DHT22;48396;48.426;1.500;2023-02-04T10:26:51;13.70;95.60
62363;DHT22;48396;48.426;1.500;2023-02-04T10:29:19;13.70;95.50
62363;DHT22;48396;48.426;1.500;2023-02-04T10:31:48;13.70;95.50
62363;DHT22;48396;48.426;1.500;2023-02-04T10:36:43;13.80;95.50
62363;DHT22;48396;48.426;1.500;2023-02-04T10:39:22;13.80;95.50
62363;DHT22;48396;48.426;1.500;2023-02-04T10:41:52;13.80;95.50
62363;DHT22;48396;48.426;1.500;2023-02-04T10:44:30;13.80;95.60
62363;DHT22;48396;48.426;1.500;2023-02-04T10:47:06;13.80;95.60
62363;DHT22;48396;48.426;1.500;2023-02-04T10:49:34;13.80;95.50
62363;DHT22;48396;48.426;1.500;2023-02-04T10:52:00;13.90;95.50
62363;DHT22;48396;48.426;1.500;2023-02-04T10:54:34;13.90;95.40
62363;DHT22;48396;48.426;1.500;2023-02-04T10:57:15;13.90;95.40
62363;DHT22;48396;48.426;1.500;2023-02-04T10:59:42;13.90;95.40
62363;DHT22;48396;48.426;1.500;2023-02-04T11:04:54;14.00;95.40
62363;DHT22;48396;48.426;1.500;2023-02-04T11:07:20;14.00;95.40
62363;DHT22;48396;48.426;1.500;2023-02-04T11:09:47;14.00;95.40
62363;DHT22;48396;48.426;1.500;2023-02-04T11:12:36;14.00;95.30
62363;DHT22;48396;48.426;1.500;2023-02-04T11:15:02;14.00;95.30
62363;DHT22;48396;48.426;1.500;2023-02-04T11:17:30;14.10;95.30
62363;DHT22;48396;48.426;1.500;2023-02-04T11:19:57;14.00;95.20
62363;DHT22;48396;48.426;1.500;2023-02-04T11:22:39;14.10;95.30
62363;DHT22;48396;48.426;1.500;2023-02-04T11:25:32;14.10;95.20
62363;DHT22;48396;48.426;1.500;2023-02-04T11:27:58;14.10;95.20
62363;DHT22;48396;48.426;1.500;2023-02-04T11:30:31;14.10;95.20
62363;DHT22;48396;48.426;1.500;2023-02-04T11:33:03;14.10;95.10
62363;DHT22;48396;48.426;1.500;2023-02-04T11:35:31;14.20;95.20
62363;DHT22;48396;48.426;1.500;2023-02-04T11:37:58;14.20;95.30
62363;DHT22;48396;48.426;1.500;2023-02-04T11:42:57;14.30;95.20
62363;DHT22;48396;48.426;1.500;2023-02-04T11:45:33;14.30;95.10
62363;DHT22;48396;48.426;1.500;2023-02-04T11:48:03;14.30;95.10
62363;DHT22;48396;48.426;1.500;2023-02-04T11:50:35;14.40;95.10
62363;DHT22;48396;48.426;1.500;2023-02-04T11:53:03;14.40;95.10
62363;DHT22;48396;48.426;1.500;2023-02-04T11:55:34;14.40;95.00
62363;DHT22;48396;48.426;1.500;2023-02-04T11:58:00;14.40;94.90
62363;DHT22;48396;48.426;1.500;2023-02-04T12:00:29;14.40;94.80
62363;DHT22;48396;48.426;1.500;2023-02-04T12:02:57;14.50;94.80
62363;DHT22;48396;48.426;1.500;2023-02-04T12:05:38;14.50;94.70
62363;DHT22;48396;48.426;1.500;2023-02-04T12:11:00;14.60;94.50
62363;DHT22;48396;48.426;1.500;2023-02-04T12:13:26;14.50;94.50
62363;DHT22;48396;48.426;1.500;2023-02-04T12:16:05;14.40;94.70
62363;DHT22;48396;48.426;1.500;2023-02-04T12:18:33;14.40;94.90
62363;DHT22;48396;48.426;1.500;2023-02-04T12:21:00;14.40;95.00
62363;DHT22;48396;48.426;1.500;2023-02-04T12:23:27;14.40;95.00
62363;DHT22;48396;48.426;1.500;2023-02-04T12:25:54;14.30;95.00
62363;DHT22;48396;48.426;1.500;2023-02-04T12:28:20;14.30;95.40
62363;DHT22;48396;48.426;1.500;2023-02-04T12:30:47;14.40;95.20
62363;DHT22;48396;48.426;1.500;2023-02-04T12:33:13;14.30;95.20
62363;DHT22;48396;48.426;1.500;2023-02-04T12:35:39;14.30;95.20
62363;DHT22;48396;48.426;1.500;2023-02-04T12:38:05;14.30;95.30
62363;DHT22;48396;48.426;1.500;2023-02-04T12:40:31;14.30;95.50
62363;DHT22;48396;48.426;1.500;2023-02-04T12:42:56;14.30;95.50
62363;DHT22;48396;48.426;1.500;2023-02-04T12:45:22;14.20;95.50
62363;DHT22;48396;48.426;1.500;2023-02-04T12:47:48;14.20;95.60
62363;DHT22;48396;48.426;1.500;2023-02-04T12:50:16;14.30;95.60
62363;DHT22;48396;48.426;1.500;2023-02-04T12:52:52;14.30;95.60
62363;DHT22;48396;48.426;1.500;2023-02-04T12:55:18;14.20;95.80
62363;DHT22;48396;48.426;1.500;2023-02-04T12:57:44;14.20;95.80
62363;DHT22;48396;48.426;1.500;2023-02-04T13:00:12;14.20;95.90
62363;DHT22;48396;48.426;1.500;2023-02-04T13:02:38;14.20;95.90
62363;DHT22;48396;48.426;1.500;2023-02-04T13:05:04;14.20;95.90
62363;DHT22;48396;48.426;1.500;2023-02-04T13:07:30;14.20;95.90
62363;DHT22;48396;48.426;1.500;2023-02-04T13:09:58;14.30;95.90
62363;DHT22;48396;48.426;1.500;2023-02-04T13:12:24;14.20;96.00
62363;DHT22;48396;48.426;1.500;2023-02-04T13:14:50;14.30;96.00
62363;DHT22;48396;48.426;1.500;2023-02-04T13:17:16;14.30;96.00
62363;DHT22;48396;48.426;1.500;2023-02-04T13:19:41;14.30;96.00
62363;DHT22;48396;48.426;1.500;2023-02-04T13:22:07;14.30;96.00
62363;DHT22;48396;48.426;1.500;2023-02-04T13:24:33;14.30;96.00
62363;DHT22;48396;48.426;1.500;2023-02-04T13:26:59;14.30;96.30
62363;DHT22;48396;48.426;1.500;2023-02-04T13:29:25;14.30;96.00
62363;DHT22;48396;48.426;1.500;2023-02-04T13:31:51;14.30;96.10
62363;DHT22;48396;48.426;1.500;2023-02-04T13:34:17;14.40;96.10
62363;DHT22;48396;48.426;1.500;2023-02-04T13:36:43;14.40;96.10
62363;DHT22;48396;48.426;1.500;2023-02-04T13:39:09;14.40;96.10
62363;DHT22;48396;48.426;1.500;2023-02-04T13:41:36;14.40;96.20
62363;DHT22;48396;48.426;1.500;2023-02-04T13:44:02;14.40;96.20
62363;DHT22;48396;48.426;1.500;2023-02-04T13:46:28;14.40;96.20
62363;DHT22;48396;48.426;1.500;2023-02-04T13:48:54;14.40;96.10
62363;DHT22;48396;48.426;1.500;2023-02-04T13:51:20;14.40;96.20
62363;DHT22;48396;48.426;1.500;2023-02-04T13:53:46;14.50;96.20
62363;DHT22;48396;48.426;1.500;2023-02-04T13:56:12;14.50;96.10
62363;DHT22;48396;48.426;1.500;2023-02-04T13:58:38;14.40;96.10
62363;DHT22;48396;48.426;1.500;2023-02-04T14:01:09;14.50;96.00
62363;DHT22;48396;48.426;1.500;2023-02-04T14:03:35;14.40;95.90
62363;DHT22;48396;48.426;1.500;2023-02-04T14:06:01;14.50;96.00
62363;DHT22;48396;48.426;1.500;2023-02-04T14:08:28;14.40;95.90
62363;DHT22;48396;48.426;1.500;2023-02-04T14:10:54;14.40;95.90
62363;DHT22;48396;48.426;1.500;2023-02-04T14:13:20;14.50;95.80
62363;DHT22;48396;48.426;1.500;2023-02-04T14:15:46;14.50;95.80
62363;DHT22;48396;48.426;1.500;2023-02-04T14:18:12;14.50;95.80
62363;DHT22;48396;48.426;1.500;2023-02-04T14:20:37;14.50;95.70
62363;DHT22;48396;48.426;1.500;2023-02-04T14:23:04;14.50;95.70
62363;DHT22;48396;48.426;1.500;2023-02-04T14:25:31;14.50;95.60
62363;DHT22;48396;48.426;1.500;2023-02-04T14:27:56;14.50;95.60
62363;DHT22;48396;48.426;1.500;2023-02-04T14:30:25;14.50;95.50
62363;DHT22;48396;48.426;1.500;2023-02-04T14:32:52;14.50;95.50
62363;DHT22;48396;48.426;1.500;2023-02-04T14:35:18;14.60;95.50
62363;DHT22;48396;48.426;1.500;2023-02-04T14:37:44;14.60;95.40
62363;DHT22;48396;48.426;1.500;2023-02-04T14:40:10;14.60;95.40
62363;DHT22;48396;48.426;1.500;2023-02-04T14:42:37;14.50;95.40
62363;DHT22;48396;48.426;1.500;2023-02-04T14:45:07;14.50;95.40
62363;DHT22;48396;48.426;1.500;2023-02-04T14:47:34;14.50;95.40
62363;DHT22;48396;48.426;1.500;2023-02-04T14:50:00;14.50;95.30
62363;DHT22;48396;48.426;1.500;2023-02-04T14:52:27;14.50;95.20
62363;DHT22;48396;48.426;1.500;2023-02-04T14:54:53;14.60;95.20
62363;DHT22;48396;48.426;1.500;2023-02-04T14:57:19;14.50;95.20
62363;DHT22;48396;48.426;1.500;2023-02-04T14:59:44;14.50;95.20
62363;DHT22;48396;48.426;1.500;2023-02-04T15:02:10;14.60;95.10
62363;DHT22;48396;48.426;1.500;2023-02-04T15:04:39;14.50;95.10
62363;DHT22;48396;48.426;1.500;2023-02-04T15:07:05;14.50;95.10
62363;DHT22;48396;48.426;1.500;2023-02-04T15:09:31;14.50;95.10
62363;DHT22;48396;48.426;1.500;2023-02-04T15:11:56;14.50;95.10
62363;DHT22;48396;48.426;1.500;2023-02-04T15:14:22;14.50;95.10
62363;DHT22;48396;48.426;1.500;2023-02-04T15:16:48;14.50;95.10
62363;DHT22;48396;48.426;1.500;2023-02-04T15:19:15;14.50;95.00
62363;DHT22;48396;48.426;1.500;2023-02-04T15:21:42;14.50;95.00
62363;DHT22;48396;48.426;1.500;2023-02-04T15:24:08;14.50;95.00
62363;DHT22;48396;48.426;1.500;2023-02-04T15:26:34;14.50;95.00
62363;DHT22;48396;48.426;1.500;2023-02-04T15:29:00;14.50;95.00
62363;DHT22;48396;48.426;1.500;2023-02-04T15:31:26;14.50;94.90
62363;DHT22;48396;48.426;1.500;2023-02-04T15:33:52;14.50;94.90
62363;DHT22;48396;48.426;1.500;2023-02-04T15:36:19;14.50;94.80
62363;DHT22;48396;48.426;1.500;2023-02-04T15:38:45;14.50;94.80
62363;DHT22;48396;48.426;1.500;2023-02-04T15:41:11;14.40;94.70